Time;durP1;ratioP1;P1;durP2;ratioP2;P2;SDS_P1;SDS_P2;PMS_P1;PMS_P2;Temp;Humidity;BMP_temperature;BMP_pressure;BME280_temperature;BME280_humidity;BME280_pressure;Samples;Min_cycle;Max_cycle;Signal;HPM_P1;HPM_P2
2022/03/16 00:02:19;;;;;;;247.83;235.30;;;5.10;99.90;;;;;;4360319;32;20293;-61
2022/03/16 00:04:50;;;;;;;238.40;227.27;;;5.10;99.90;;;;;;4359364;32;20208;-61
2022/03/16 00:07:18;;;;;;;242.80;231.37;;;5.10;99.90;;;;;;4360067;32;20152;-61
2022/03/16 00:09:48;;;;;;;244.43;233.00;;;5.10;99.90;;;;;;4361076;32;20157;-62
2022/03/16 00:12:16;;;;;;;246.83;234.97;;;5.00;99.90;;;;;;4360429;32;20218;-61
2022/03/16 00:14:47;;;;;;;243.67;231.53;;;5.00;99.90;;;;;;4360612;32;20149;-61
2022/03/16 00:17:35;;;;;;;234.57;223.63;;;4.90;99.90;;;;;;4364150;32;20182;-60
2022/03/16 00:20:12;;;;;;;232.10;220.87;;;4.90;99.90;;;;;;4366751;32;20198;-60
2022/03/16 00:22:48;;;;;;;243.90;232.33;;;4.90;99.90;;;;;;4373174;32;20231;-60
2022/03/16 00:25:26;;;;;;;236.17;224.57;;;4.90;99.90;;;;;;4373945;32;20720;-59
2022/03/16 00:28:05;;;;;;;244.27;232.23;;;4.90;99.90;;;;;;4373509;32;20250;-60
2022/03/16 00:30:55;;;;;;;236.17;224.37;;;4.90;99.90;;;;;;4374329;32;20306;-60
2022/03/16 00:33:29;;;;;;;247.87;235.53;;;4.90;99.90;;;;;;4373453;32;20260;-59
2022/03/16 00:36:05;;;;;;;239.60;227.87;;;4.90;99.90;;;;;;4373005;32;20293;-59
2022/03/16 00:38:32;;;;;;;253.90;241.70;;;4.90;99.90;;;;;;4373804;32;20233;-60
2022/03/16 00:40:59;;;;;;;243.47;231.23;;;4.80;99.90;;;;;;4373522;32;20243;-61
2022/03/16 00:43:33;;;;;;;241.37;229.50;;;4.80;99.90;;;;;;4373975;32;20359;-61
2022/03/16 00:46:08;;;;;;;241.07;229.33;;;4.80;99.90;;;;;;4373943;32;20219;-60
2022/03/16 00:48:42;;;;;;;245.00;233.20;;;4.80;99.90;;;;;;4372797;32;20230;-61
2022/03/16 00:51:16;;;;;;;228.57;217.20;;;4.70;99.90;;;;;;4372345;32;20227;-60
2022/03/16 00:53:55;;;;;;;243.23;231.20;;;4.70;99.90;;;;;;4372222;32;20250;-60
2022/03/16 00:56:26;;;;;;;234.77;223.27;;;4.70;99.90;;;;;;4373306;32;20588;-61
2022/03/16 00:58:53;;;;;;;241.23;228.50;;;4.60;99.90;;;;;;4373521;32;20245;-59
2022/03/16 01:01:23;;;;;;;242.23;230.03;;;4.60;99.90;;;;;;4372677;32;20296;-60
2022/03/16 01:04:04;;;;;;;241.10;228.47;;;4.60;99.90;;;;;;4373625;32;20247;-58
2022/03/16 01:06:38;;;;;;;240.83;228.93;;;4.60;99.90;;;;;;4374581;32;20223;-61
2022/03/16 01:09:11;;;;;;;245.67;233.47;;;4.60;99.90;;;;;;4374226;32;20152;-59
2022/03/16 01:11:53;;;;;;;245.43;233.10;;;4.60;99.90;;;;;;4372366;32;20259;-60
2022/03/16 01:14:25;;;;;;;238.27;226.63;;;4.60;99.90;;;;;;4372619;32;20278;-59
2022/03/16 01:16:56;;;;;;;238.57;226.47;;;4.60;99.90;;;;;;4373084;32;20262;-60
2022/03/16 01:19:24;;;;;;;249.17;236.77;;;4.60;99.90;;;;;;4372767;32;20234;-59
2022/03/16 01:21:53;;;;;;;230.53;218.87;;;4.50;99.90;;;;;;4372611;32;20250;-60
2022/03/16 01:24:27;;;;;;;244.60;232.23;;;4.50;99.90;;;;;;4372602;32;20241;-58
2022/03/16 01:26:58;;;;;;;239.57;227.57;;;4.50;99.90;;;;;;4373156;32;20227;-60
2022/03/16 01:29:29;;;;;;;239.27;227.10;;;4.50;99.90;;;;;;4373001;32;20278;-60
2022/03/16 01:32:04;;;;;;;244.10;231.70;;;4.50;99.90;;;;;;4373549;32;20227;-60
2022/03/16 01:34:35;;;;;;;240.20;227.33;;;4.50;99.90;;;;;;4372134;32;20254;-61
2022/03/16 01:37:03;;;;;;;254.87;241.73;;;4.50;99.90;;;;;;4373065;32;20227;-61
2022/03/16 01:39:48;;;;;;;256.93;243.67;;;4.50;99.90;;;;;;4371668;32;20575;-61
2022/03/16 01:42:22;;;;;;;253.13;239.93;;;4.50;99.90;;;;;;4371479;32;20226;-60
2022/03/16 01:44:57;;;;;;;255.53;242.37;;;4.50;99.90;;;;;;4357350;32;20275;-60
2022/03/16 01:47:29;;;;;;;237.63;225.03;;;4.50;99.90;;;;;;4370863;32;20219;-60
2022/03/16 01:50:01;;;;;;;248.90;235.73;;;4.50;99.90;;;;;;4370766;32;20290;-60
2022/03/16 01:52:30;;;;;;;246.20;233.17;;;4.40;99.90;;;;;;4372410;32;20538;-59
2022/03/16 01:55:05;;;;;;;261.27;247.47;;;4.50;99.90;;;;;;4383505;32;20592;-60
2022/03/16 01:57:39;;;;;;;269.40;254.93;;;4.50;99.90;;;;;;4378923;32;20153;-61
2022/03/16 02:00:10;;;;;;;266.87;252.40;;;4.50;99.90;;;;;;4391399;32;20185;-59
2022/03/16 02:02:39;;;;;;;245.90;232.57;;;4.60;99.90;;;;;;4389791;32;20180;-59
2022/03/16 02:05:12;;;;;;;241.07;227.53;;;4.60;99.90;;;;;;4390540;32;20210;-60
2022/03/16 02:07:51;;;;;;;246.60;232.37;;;4.50;99.90;;;;;;4391076;32;20156;-60
2022/03/16 02:10:20;;;;;;;237.03;224.23;;;4.50;99.90;;;;;;4391324;32;20511;-60
2022/03/16 02:12:53;;;;;;;231.37;218.13;;;4.50;99.90;;;;;;4391228;32;20192;-60
2022/03/16 02:15:23;;;;;;;234.33;221.13;;;4.60;99.90;;;;;;4391246;32;20543;-60
2022/03/16 02:18:03;;;;;;;245.30;231.73;;;4.60;99.90;;;;;;4391510;32;20206;-59
2022/03/16 02:20:40;;;;;;;210.83;198.73;;;4.50;99.90;;;;;;4390511;32;20659;-59
2022/03/16 02:23:11;;;;;;;222.63;209.77;;;4.50;99.90;;;;;;4391062;32;20147;-61
2022/03/16 02:28:45;;;;;;;214.33;202.03;;;4.50;99.90;;;;;;4373846;32;20283;-60
2022/03/16 02:31:17;;;;;;;187.23;176.00;;;4.50;99.90;;;;;;4373666;32;20230;-61
2022/03/16 02:33:55;;;;;;;202.23;190.07;;;4.50;99.90;;;;;;4373065;32;20240;-60
2022/03/16 02:36:22;;;;;;;206.47;194.23;;;4.50;99.90;;;;;;4358638;33;20216;-61
2022/03/16 02:39:00;;;;;;;201.93;189.80;;;4.50;99.90;;;;;;4358601;33;20251;-61
2022/03/16 02:44:24;;;;;;;206.17;193.33;;;4.50;99.90;;;;;;4358773;32;20616;-60
2022/03/16 02:46:54;;;;;;;195.70;183.53;;;4.60;99.90;;;;;;4358374;33;20157;-59
2022/03/16 02:49:28;;;;;;;216.17;203.40;;;4.60;99.90;;;;;;4369112;32;20161;-59
2022/03/16 02:52:05;;;;;;;214.93;201.87;;;4.60;99.90;;;;;;4373483;32;20215;-60
2022/03/16 02:54:37;;;;;;;219.60;206.10;;;4.60;99.90;;;;;;4385941;32;20161;-59
2022/03/16 02:57:13;;;;;;;217.60;204.23;;;4.60;99.90;;;;;;4382818;32;20173;-59
2022/03/16 02:59:42;;;;;;;215.60;202.57;;;4.60;99.90;;;;;;4388396;32;20176;-60
2022/03/16 03:02:10;;;;;;;207.40;194.83;;;4.60;99.90;;;;;;4388584;32;20179;-60
2022/03/16 03:04:40;;;;;;;217.43;204.67;;;4.50;99.90;;;;;;4391288;32;20204;-60
2022/03/16 03:07:15;;;;;;;219.70;206.57;;;4.50;99.90;;;;;;4390583;32;20166;-60
2022/03/16 03:09:45;;;;;;;235.73;221.97;;;4.50;99.90;;;;;;4390338;32;20159;-61
2022/03/16 03:12:19;;;;;;;211.50;198.77;;;4.50;99.90;;;;;;4390369;32;20472;-61
2022/03/16 03:14:52;;;;;;;208.87;195.97;;;4.50;99.90;;;;;;4392823;32;20157;-60
2022/03/16 03:17:25;;;;;;;210.93;197.73;;;4.50;99.90;;;;;;4394475;32;20159;-61
2022/03/16 03:20:00;;;;;;;223.37;210.73;;;4.50;99.90;;;;;;4395863;32;20475;-60
2022/03/16 03:22:35;;;;;;;220.70;207.63;;;4.50;99.90;;;;;;4394747;32;20594;-61
2022/03/16 03:25:09;;;;;;;226.03;212.60;;;4.50;99.90;;;;;;4387582;32;20151;-61
2022/03/16 03:27:43;;;;;;;229.30;215.57;;;4.50;99.90;;;;;;4394514;32;20187;-60
2022/03/16 03:30:17;;;;;;;225.07;212.10;;;4.40;99.90;;;;;;4395083;32;20613;-60
2022/03/16 03:33:03;;;;;;;215.53;202.87;;;4.40;99.90;;;;;;4395335;32;20166;-59
2022/03/16 03:35:46;;;;;;;217.10;204.83;;;4.40;99.90;;;;;;4395265;32;20215;-60
2022/03/16 03:38:19;;;;;;;219.30;206.30;;;4.50;99.90;;;;;;4395385;32;20535;-60
2022/03/16 03:40:52;;;;;;;217.27;204.47;;;4.30;99.90;;;;;;4395714;32;20476;-59
2022/03/16 03:43:31;;;;;;;222.17;209.13;;;4.40;99.90;;;;;;4395857;32;20147;-59
2022/03/16 03:46:08;;;;;;;226.23;213.23;;;4.30;99.90;;;;;;4395370;32;20152;-60
2022/03/16 03:48:38;;;;;;;230.33;216.97;;;4.30;99.90;;;;;;4394784;32;20194;-60
2022/03/16 03:51:05;;;;;;;233.60;220.23;;;4.30;99.90;;;;;;4395234;32;20140;-60
2022/03/16 03:53:42;;;;;;;248.33;234.30;;;4.20;99.90;;;;;;4394897;32;20151;-59
2022/03/16 03:56:17;;;;;;;216.83;203.67;;;4.30;99.90;;;;;;4386646;32;20211;-59
2022/03/16 03:58:49;;;;;;;222.43;209.67;;;4.30;99.90;;;;;;4380040;32;20149;-59
2022/03/16 04:01:25;;;;;;;245.70;231.40;;;4.30;99.90;;;;;;4380053;32;20161;-61
2022/03/16 04:03:55;;;;;;;220.80;207.60;;;4.30;99.90;;;;;;4380997;32;20280;-59
2022/03/16 04:06:26;;;;;;;225.90;212.23;;;4.30;99.90;;;;;;4386195;32;20217;-59
2022/03/16 04:08:56;;;;;;;238.33;224.23;;;4.30;99.90;;;;;;4396199;32;20191;-60
2022/03/16 04:11:45;;;;;;;237.33;223.77;;;4.30;99.90;;;;;;4395558;32;20166;-60
2022/03/16 04:14:16;;;;;;;224.70;210.83;;;4.30;99.90;;;;;;4394998;32;20189;-59
2022/03/16 04:16:45;;;;;;;224.83;211.53;;;4.20;99.90;;;;;;4393975;32;20152;-59
2022/03/16 04:19:16;;;;;;;224.33;210.83;;;4.20;99.90;;;;;;4395038;32;20604;-61
2022/03/16 04:21:48;;;;;;;228.43;214.57;;;4.20;99.90;;;;;;4394706;32;20190;-60
2022/03/16 04:24:27;;;;;;;233.70;219.87;;;4.30;99.90;;;;;;4390695;32;20215;-60
2022/03/16 04:26:59;;;;;;;222.93;209.67;;;4.30;99.90;;;;;;4387225;32;20472;-60
2022/03/16 04:29:30;;;;;;;217.77;204.87;;;4.30;99.90;;;;;;4392557;32;20144;-61
2022/03/16 04:32:03;;;;;;;222.33;209.20;;;4.40;99.90;;;;;;4392436;32;20205;-60
2022/03/16 04:34:41;;;;;;;226.57;213.57;;;4.40;99.90;;;;;;4392549;32;20171;-61
2022/03/16 04:37:35;;;;;;;236.70;223.23;;;4.40;99.90;;;;;;4392196;32;20176;-60
2022/03/16 04:40:09;;;;;;;225.23;211.43;;;4.40;99.90;;;;;;4361990;32;20167;-59
2022/03/16 04:42:41;;;;;;;213.50;200.63;;;4.40;99.90;;;;;;4360350;32;20161;-59
2022/03/16 04:45:26;;;;;;;228.10;214.37;;;4.40;99.90;;;;;;4360154;32;20156;-60
2022/03/16 04:47:58;;;;;;;204.87;192.57;;;4.40;99.90;;;;;;4360259;32;20468;-60
2022/03/16 04:50:40;;;;;;;;;;;;;;;;;;;;;
2022/03/16 04:53:15;;;;;;;213.70;201.23;;;4.30;99.90;;;;;;4359089;32;20557;-60
2022/03/16 04:55:46;;;;;;;201.93;189.97;;;4.30;99.90;;;;;;4353274;32;20647;-60
2022/03/16 04:58:17;;;;;;;207.93;195.33;;;4.40;99.90;;;;;;4358422;32;20184;-60
2022/03/16 05:00:48;;;;;;;191.43;179.57;;;4.40;99.90;;;;;;4360672;32;20153;-60
2022/03/16 05:03:17;;;;;;;171.77;160.60;;;4.40;99.90;;;;;;4359861;32;20618;-61
2022/03/16 05:05:46;;;;;;;184.00;173.00;;;4.30;99.90;;;;;;4359892;33;20503;-61
2022/03/16 05:11:01;;;;;;;172.97;162.00;;;4.30;99.90;;;;;;4301126;33;20187;-60
2022/03/16 05:13:29;;;;;;;189.77;178.50;;;4.20;99.90;;;;;;4301133;33;20286;-61
2022/03/16 05:16:03;;;;;;;169.17;158.93;;;4.20;99.90;;;;;;4302971;33;20187;-59
2022/03/16 05:18:32;;;;;;;168.43;158.60;;;4.20;99.90;;;;;;4330286;33;20171;-60
2022/03/16 05:21:06;;;;;;;168.40;158.23;;;4.20;99.90;;;;;;4329990;33;20630;-60
2022/03/16 05:23:33;;;;;;;164.67;155.07;;;4.20;99.90;;;;;;4316466;33;20164;-59
2022/03/16 05:26:00;;;;;;;158.73;148.90;;;4.20;99.90;;;;;;4320367;33;20228;-59
2022/03/16 05:28:33;;;;;;;162.53;152.23;;;4.20;99.90;;;;;;4329424;33;20537;-59
2022/03/16 05:31:07;;;;;;;181.70;170.30;;;4.20;99.90;;;;;;4330086;33;20189;-60
2022/03/16 05:33:41;;;;;;;160.03;151.00;;;4.20;99.90;;;;;;4331200;33;20179;-59
2022/03/16 05:36:16;;;;;;;160.57;151.00;;;4.10;99.90;;;;;;4365626;32;20170;-59
2022/03/16 05:38:52;;;;;;;176.93;166.60;;;4.10;99.90;;;;;;4391900;32;20551;-59
2022/03/16 05:41:29;;;;;;;157.77;147.77;;;4.10;99.90;;;;;;4392837;32;20482;-60
2022/03/16 05:44:00;;;;;;;151.50;142.30;;;4.10;99.90;;;;;;4391257;32;20149;-59
2022/03/16 05:46:37;;;;;;;189.47;178.87;;;4.10;99.90;;;;;;4390656;32;20171;-60
2022/03/16 05:49:19;;;;;;;172.57;162.70;;;4.20;99.90;;;;;;4383460;32;20171;-61
2022/03/16 05:51:58;;;;;;;174.10;163.97;;;4.20;99.90;;;;;;4388778;32;20168;-60
2022/03/16 05:54:27;;;;;;;170.03;160.07;;;4.10;99.90;;;;;;4386982;32;20213;-60
2022/03/16 05:56:54;;;;;;;185.77;174.80;;;4.10;99.90;;;;;;4376301;32;20140;-61
2022/03/16 05:59:22;;;;;;;184.63;174.07;;;4.10;99.90;;;;;;4375937;32;20196;-60
2022/03/16 06:01:52;;;;;;;167.40;157.03;;;4.10;99.90;;;;;;4376633;32;20162;-60
2022/03/16 06:04:21;;;;;;;166.90;157.10;;;4.20;99.90;;;;;;4390223;32;20568;-60
2022/03/16 06:09:40;;;;;;;148.00;139.17;;;4.20;99.90;;;;;;4344041;33;20191;-60
2022/03/16 06:12:18;;;;;;;157.23;147.80;;;4.30;99.90;;;;;;4342588;33;20843;-60
2022/03/16 06:15:05;;;;;;;146.97;138.03;;;4.30;99.90;;;;;;4345994;33;20165;-60
2022/03/16 06:17:37;;;;;;;155.10;146.03;;;4.40;99.90;;;;;;4348531;32;20184;-60
2022/03/16 06:20:15;;;;;;;168.30;158.77;;;4.40;99.90;;;;;;4347983;33;20164;-60
2022/03/16 06:22:47;;;;;;;167.10;157.50;;;4.40;99.90;;;;;;4348920;32;20156;-60
2022/03/16 06:25:17;;;;;;;153.23;144.57;;;4.40;99.90;;;;;;4341817;33;20509;-60
2022/03/16 06:27:48;;;;;;;155.03;146.07;;;4.40;99.90;;;;;;4345772;33;20191;-60
2022/03/16 06:30:23;;;;;;;151.83;143.17;;;4.50;99.90;;;;;;4344447;33;20184;-59
2022/03/16 06:33:03;;;;;;;142.03;133.77;;;4.50;99.90;;;;;;4344885;33;20165;-59
2022/03/16 06:35:40;;;;;;;166.83;157.27;;;4.50;99.90;;;;;;4350585;32;20287;-59
2022/03/16 06:38:14;;;;;;;129.70;121.87;;;4.60;99.90;;;;;;4351288;33;20164;-58
2022/03/16 06:40:47;;;;;;;148.03;139.13;;;4.70;99.90;;;;;;4366585;32;20233;-60
2022/03/16 06:43:21;;;;;;;157.90;149.07;;;4.80;99.90;;;;;;4388730;32;20234;-60
2022/03/16 06:45:57;;;;;;;144.03;136.07;;;5.00;99.90;;;;;;4387586;32;20487;-60
2022/03/16 06:48:24;;;;;;;125.07;117.33;;;5.10;99.90;;;;;;4387239;32;20198;-59
2022/03/16 06:51:06;;;;;;;114.67;107.43;;;5.30;99.90;;;;;;4389392;32;20622;-58
2022/03/16 06:53:42;;;;;;;101.87;94.73;;;5.40;99.90;;;;;;4386701;32;20203;-59
2022/03/16 06:56:29;;;;;;;112.63;105.53;;;5.50;99.90;;;;;;4387461;32;20167;-59
2022/03/16 06:59:13;;;;;;;90.47;84.77;;;5.50;99.90;;;;;;4389799;32;20209;-59
2022/03/16 07:01:53;;;;;;;93.67;87.67;;;5.60;99.90;;;;;;4386386;32;20178;-59
2022/03/16 07:04:20;;;;;;;92.63;86.60;;;5.60;99.90;;;;;;4388041;32;20179;-59
2022/03/16 07:06:50;;;;;;;88.23;82.17;;;5.70;99.90;;;;;;4389460;32;20194;-58
2022/03/16 07:09:32;;;;;;;88.07;82.37;;;5.80;99.90;;;;;;4389505;32;20205;-59
2022/03/16 07:11:59;;;;;;;81.10;75.50;;;5.90;99.90;;;;;;4386546;32;20176;-58
2022/03/16 07:14:34;;;;;;;81.67;76.20;;;6.00;99.90;;;;;;4389498;32;20155;-58
2022/03/16 07:17:34;;;;;;;74.97;70.00;;;6.10;99.90;;;;;;4387060;32;20163;-58
2022/03/16 07:20:15;;;;;;;78.53;73.87;;;6.20;99.90;;;;;;4388130;32;20528;-59
2022/03/16 07:22:44;;;;;;;72.20;68.13;;;6.30;99.90;;;;;;4387886;32;20171;-58
2022/03/16 07:25:16;;;;;;;76.13;71.77;;;6.40;99.90;;;;;;4386930;32;20206;-57
2022/03/16 07:27:54;;;;;;;63.33;60.00;;;6.50;99.90;;;;;;4388276;32;20215;-59
2022/03/16 07:30:22;;;;;;;67.60;64.00;;;6.60;99.90;;;;;;4388496;32;20597;-60
2022/03/16 07:32:55;;;;;;;72.43;67.73;;;6.70;99.90;;;;;;4389479;32;20164;-61
2022/03/16 07:35:26;;;;;;;70.87;67.03;;;6.90;99.90;;;;;;4387629;32;20160;-59
2022/03/16 07:37:57;;;;;;;70.10;66.53;;;6.90;99.90;;;;;;4389335;32;20191;-59
2022/03/16 07:40:41;;;;;;;69.43;65.53;;;7.00;99.90;;;;;;4389048;32;20152;-59
2022/03/16 07:43:19;;;;;;;63.47;59.93;;;7.20;99.90;;;;;;4386979;32;20224;-60
2022/03/16 07:45:53;;;;;;;66.33;62.67;;;7.30;99.90;;;;;;4387834;32;20219;-60
2022/03/16 07:48:43;;;;;;;81.23;77.10;;;7.60;99.90;;;;;;4388405;32;20156;-59
2022/03/16 07:51:15;;;;;;;72.80;69.30;;;7.80;99.90;;;;;;4389082;32;20173;-59
2022/03/16 07:53:49;;;;;;;69.80;66.40;;;8.00;99.90;;;;;;4389095;32;20164;-58
2022/03/16 07:56:15;;;;;;;78.43;74.43;;;8.30;99.90;;;;;;4379147;32;20674;-59
2022/03/16 07:58:45;;;;;;;68.87;65.57;;;8.60;99.90;;;;;;4388852;32;20630;-59
2022/03/16 08:01:23;;;;;;;;;;;;;;;;;;;;;
2022/03/16 08:03:58;;;;;;;74.70;71.13;;;9.00;99.90;;;;;;4389670;32;20152;-60
2022/03/16 08:06:32;;;;;;;74.37;70.97;;;9.30;99.90;;;;;;4390633;32;20171;-60
2022/03/16 08:08:59;;;;;;;79.83;76.13;;;9.50;99.90;;;;;;4390867;32;20149;-60
2022/03/16 08:11:34;;;;;;;90.77;86.60;;;9.60;99.90;;;;;;4389841;32;20167;-61
2022/03/16 08:14:05;;;;;;;76.63;73.23;;;9.90;99.90;;;;;;4392335;32;20475;-60
2022/03/16 08:16:38;;;;;;;80.43;76.77;;;10.00;99.90;;;;;;4392584;32;20202;-60
2022/03/16 08:19:13;;;;;;;79.30;75.50;;;10.10;99.90;;;;;;4390586;32;20209;-60
2022/03/16 08:21:50;;;;;;;80.53;76.97;;;10.20;99.90;;;;;;4391936;32;20207;-60
2022/03/16 08:24:24;;;;;;;89.33;85.23;;;10.30;99.90;;;;;;4390082;32;20186;-60
2022/03/16 08:26:51;;;;;;;92.47;88.47;;;10.50;99.90;;;;;;4387176;32;20156;-60
2022/03/16 08:29:25;;;;;;;93.50;89.37;;;10.80;99.90;;;;;;4392362;32;20148;-62
2022/03/16 08:32:00;;;;;;;92.87;88.63;;;11.10;99.90;;;;;;4392788;32;20164;-62
2022/03/16 08:34:31;;;;;;;94.67;90.53;;;11.40;99.90;;;;;;4391717;32;20178;-61
2022/03/16 08:37:00;;;;;;;97.70;93.37;;;11.50;99.90;;;;;;4392324;32;20175;-62
2022/03/16 08:39:33;;;;;;;100.33;95.80;;;11.60;99.90;;;;;;4391215;32;20180;-61
2022/03/16 08:42:00;;;;;;;107.80;103.10;;;11.80;99.90;;;;;;4391175;32;20215;-61
2022/03/16 08:47:10;;;;;;;104.57;99.87;;;11.90;99.90;;;;;;4392195;32;20686;-61
2022/03/16 08:49:48;;;;;;;111.20;106.37;;;11.80;99.90;;;;;;4392056;32;20257;-62
2022/03/16 08:52:15;;;;;;;99.67;95.13;;;11.80;99.90;;;;;;4391973;32;20148;-61
2022/03/16 08:54:44;;;;;;;96.00;91.67;;;11.90;99.90;;;;;;4391148;32;20570;-61
2022/03/16 08:57:11;;;;;;;112.10;107.30;;;11.90;99.90;;;;;;4393040;32;20148;-61
2022/03/16 08:59:41;;;;;;;106.17;101.57;;;12.00;99.90;;;;;;4391019;32;20156;-61
2022/03/16 09:02:14;;;;;;;102.73;98.30;;;11.80;99.90;;;;;;4392082;32;20514;-61
2022/03/16 09:04:42;;;;;;;108.37;103.80;;;11.80;99.90;;;;;;4392383;32;20144;-62
2022/03/16 09:07:09;;;;;;;114.33;109.23;;;11.90;99.90;;;;;;4393201;32;20140;-59
2022/03/16 09:09:36;;;;;;;120.50;115.30;;;12.00;99.90;;;;;;4392133;32;20149;-62
2022/03/16 09:12:11;;;;;;;122.77;117.50;;;12.10;99.90;;;;;;4391526;32;20160;-59
2022/03/16 09:14:47;;;;;;;120.13;114.97;;;12.10;99.90;;;;;;4393586;32;20240;-63
2022/03/16 09:17:17;;;;;;;127.10;121.70;;;12.00;99.90;;;;;;4392000;32;20179;-63
2022/03/16 09:19:48;;;;;;;138.13;132.13;;;12.00;99.90;;;;;;4392022;32;20583;-60
2022/03/16 09:22:18;;;;;;;134.30;128.60;;;12.00;99.90;;;;;;4392383;32;20148;-62
2022/03/16 09:24:50;;;;;;;135.90;130.07;;;11.80;99.90;;;;;;4392865;32;20167;-62
2022/03/16 09:27:28;;;;;;;129.23;123.70;;;11.70;99.90;;;;;;4391097;32;20200;-62
2022/03/16 09:30:00;;;;;;;142.73;136.63;;;11.70;99.90;;;;;;4384040;32;20269;-62
2022/03/16 09:32:46;;;;;;;133.77;127.93;;;11.50;99.90;;;;;;4390256;32;20180;-61
2022/03/16 09:35:16;;;;;;;149.03;142.87;;;11.60;99.90;;;;;;4391123;32;20174;-62
2022/03/16 09:37:54;;;;;;;150.00;143.57;;;11.50;99.90;;;;;;4391544;32;20140;-62
2022/03/16 09:40:21;;;;;;;161.33;154.47;;;11.50;99.90;;;;;;4392290;32;20152;-62
2022/03/16 09:42:49;;;;;;;160.03;153.30;;;11.60;99.90;;;;;;4392029;32;20483;-61
2022/03/16 09:45:24;;;;;;;156.97;150.33;;;11.60;99.90;;;;;;4391656;32;20190;-62
2022/03/16 09:48:12;;;;;;;149.87;143.47;;;11.60;99.90;;;;;;4386869;32;20174;-62
2022/03/16 09:50:56;;;;;;;143.97;137.87;;;11.60;99.90;;;;;;4392199;32;20167;-62
2022/03/16 09:53:31;;;;;;;150.20;143.80;;;11.70;99.90;;;;;;4382930;32;20152;-62
2022/03/16 09:56:15;;;;;;;148.23;141.73;;;11.80;99.90;;;;;;4378807;32;20156;-63
2022/03/16 09:58:46;;;;;;;146.73;140.47;;;11.80;99.90;;;;;;4376727;32;20144;-61
2022/03/16 10:01:13;;;;;;;147.37;141.07;;;11.80;99.90;;;;;;4376315;32;20152;-62
2022/03/16 10:03:48;;;;;;;146.77;140.40;;;11.90;99.90;;;;;;4374749;32;20160;-65
2022/03/16 10:06:27;;;;;;;155.43;148.83;;;11.80;99.90;;;;;;4376997;32;20624;-62
2022/03/16 10:14:49;;;;;;;143.47;137.33;;;11.90;99.90;;;;;;4344741;33;20158;-63
2022/03/16 10:20:13;;;;;;;147.07;140.90;;;11.90;99.90;;;;;;4344615;33;20180;-60
2022/03/16 10:22:41;;;;;;;147.30;140.73;;;12.00;99.90;;;;;;4344093;33;20495;-61
2022/03/16 10:25:10;;;;;;;147.83;141.60;;;12.10;99.90;;;;;;4344786;33;20187;-62
2022/03/16 10:27:40;;;;;;;142.00;135.80;;;12.10;99.90;;;;;;4344279;33;20161;-63
2022/03/16 10:30:11;;;;;;;147.10;140.93;;;12.20;99.90;;;;;;4344106;33;20192;-60
2022/03/16 10:33:06;;;;;;;135.93;129.90;;;12.20;99.90;;;;;;4344013;33;20149;-61
2022/03/16 10:35:39;;;;;;;144.10;137.90;;;12.30;99.90;;;;;;4285596;33;20221;-62
2022/03/16 10:38:19;;;;;;;147.20;140.83;;;12.30;99.90;;;;;;4285642;33;20159;-63
2022/03/16 10:40:51;;;;;;;146.17;139.80;;;12.40;99.90;;;;;;4285675;33;20184;-62
2022/03/16 10:49:09;;;;;;;145.23;139.20;;;12.70;99.90;;;;;;4300488;33;20599;-61
2022/03/16 10:51:43;;;;;;;143.53;137.43;;;12.90;99.90;;;;;;4314566;33;20157;-60
2022/03/16 10:54:20;;;;;;;155.50;149.03;;;12.90;99.90;;;;;;4314310;33;20610;-63
2022/03/16 10:56:55;;;;;;;150.23;143.87;;;12.90;99.90;;;;;;4314746;33;20172;-62
2022/03/16 10:59:37;;;;;;;142.90;136.77;;;12.90;99.90;;;;;;4314370;33;20171;-61
2022/03/16 11:02:14;;;;;;;150.73;144.37;;;12.90;99.90;;;;;;4314080;33;20161;-61
2022/03/16 11:07:43;;;;;;;151.33;144.93;;;13.10;99.90;;;;;;4314140;33;20177;-61
2022/03/16 11:13:40;;;;;;;;;;;;;;;;;;;;;
2022/03/16 11:16:11;;;;;;;141.67;135.67;;;13.30;99.90;;;;;;4375312;32;20140;-62
2022/03/16 11:18:46;;;;;;;154.90;148.43;;;13.30;99.90;;;;;;4375854;32;20239;-61
2022/03/16 11:21:28;;;;;;;141.97;136.10;;;13.40;99.90;;;;;;4375781;32;20506;-62
2022/03/16 11:24:21;;;;;;;144.27;138.23;;;13.50;99.40;;;;;;4375511;32;20163;-62
2022/03/16 11:27:20;;;;;;;155.30;148.90;;;13.50;99.70;;;;;;4362383;32;20232;-61
2022/03/16 11:30:25;;;;;;;140.63;134.67;;;13.60;99.70;;;;;;4375512;32;20164;-62
2022/03/16 11:33:19;;;;;;;148.93;142.67;;;13.60;99.40;;;;;;4375404;32;20434;-62
2022/03/16 11:36:10;;;;;;;151.13;144.77;;;13.60;99.50;;;;;;4376580;32;20152;-62
2022/03/16 11:38:52;;;;;;;136.60;130.80;;;13.60;99.40;;;;;;4378388;32;20137;-62
2022/03/16 11:41:35;;;;;;;139.70;133.23;;;13.80;99.50;;;;;;4378804;32;20518;-62
2022/03/16 11:44:33;;;;;;;139.00;133.10;;;14.10;98.60;;;;;;4378163;32;20535;-62
2022/03/16 11:47:35;;;;;;;143.73;137.67;;;14.40;98.30;;;;;;4378151;32;20144;-62
2022/03/16 11:50:15;;;;;;;149.43;143.27;;;14.80;97.90;;;;;;4331639;33;20161;-62
2022/03/16 11:53:01;;;;;;;144.33;138.30;;;14.90;97.80;;;;;;4336072;33;20231;-61
2022/03/16 11:55:57;;;;;;;149.97;143.70;;;15.00;97.40;;;;;;4354459;33;20181;-62
2022/03/16 11:58:33;;;;;;;136.97;131.07;;;14.90;97.60;;;;;;4350106;33;20185;-61
2022/03/16 12:04:39;;;;;;;135.90;130.13;;;14.80;97.30;;;;;;4318576;33;20320;-62
2022/03/16 12:07:28;;;;;;;151.87;145.63;;;14.90;97.70;;;;;;4317829;33;20535;-62
2022/03/16 12:10:16;;;;;;;139.67;133.87;;;14.80;97.30;;;;;;4286742;33;20169;-62
2022/03/16 12:12:57;;;;;;;144.97;138.80;;;14.90;97.30;;;;;;4286069;33;20236;-61
2022/03/16 12:15:53;;;;;;;146.83;140.60;;;15.00;97.50;;;;;;4288291;33;20161;-62
2022/03/16 12:18:39;;;;;;;134.80;129.13;;;15.30;97.00;;;;;;4284652;33;20173;-62
2022/03/16 12:21:10;;;;;;;140.47;134.63;;;15.60;96.20;;;;;;4285671;33;20206;-62
2022/03/16 12:23:58;;;;;;;138.07;132.37;;;15.70;96.20;;;;;;4287311;33;20181;-62
2022/03/16 12:28:55;;;;;;;133.33;127.63;;;15.80;96.00;;;;;;4287984;33;20233;-63
2022/03/16 12:29:31;;;;;;;137.27;131.47;;;15.80;95.80;;;;;;4312237;33;20199;-60
2022/03/16 12:32:14;;;;;;;139.47;133.57;;;15.70;95.90;;;;;;4307282;33;20161;-61
2022/03/16 12:34:57;;;;;;;140.63;134.70;;;15.60;96.10;;;;;;4302361;33;20197;-62
2022/03/16 12:37:28;;;;;;;146.67;140.40;;;15.50;96.20;;;;;;4302408;33;20507;-62
2022/03/16 12:40:19;;;;;;;138.00;132.07;;;15.30;96.30;;;;;;4318913;33;20165;-62
2022/03/16 12:42:58;;;;;;;130.97;125.43;;;15.20;96.70;;;;;;4336907;33;20203;-61
2022/03/16 12:45:31;;;;;;;132.33;126.73;;;15.10;96.50;;;;;;4340986;33;20164;-61
2022/03/16 12:48:04;;;;;;;137.60;131.70;;;14.90;96.70;;;;;;4386004;32;20147;-61
2022/03/16 12:51:02;;;;;;;129.83;124.23;;;14.80;97.10;;;;;;4388671;32;20174;-62
2022/03/16 12:53:58;;;;;;;136.60;130.73;;;14.80;97.50;;;;;;4390628;32;20191;-62
2022/03/16 12:56:34;;;;;;;146.70;140.63;;;14.80;97.40;;;;;;4392172;32;20179;-62
2022/03/16 12:59:20;;;;;;;157.23;150.70;;;15.00;97.90;;;;;;4392437;32;20467;-62
2022/03/16 13:02:02;;;;;;;140.87;134.77;;;15.20;97.10;;;;;;4392625;32;20170;-62
2022/03/16 13:04:45;;;;;;;146.90;140.70;;;15.10;96.90;;;;;;4390241;32;20148;-61
2022/03/16 13:07:32;;;;;;;142.93;136.83;;;15.00;97.20;;;;;;4392480;32;20152;-62
2022/03/16 13:10:16;;;;;;;137.10;131.33;;;15.10;96.90;;;;;;4391920;32;20135;-61
2022/03/16 13:13:01;;;;;;;140.37;134.43;;;15.10;97.00;;;;;;4392093;32;20160;-62
2022/03/16 13:18:33;;;;;;;146.97;140.80;;;15.00;97.00;;;;;;4390866;32;20639;-62
2022/03/16 13:21:22;;;;;;;138.07;132.10;;;15.10;97.30;;;;;;4391805;32;20160;-62
2022/03/16 13:27:08;;;;;;;150.20;143.73;;;15.00;97.30;;;;;;4359340;33;20266;-62
2022/03/16 13:29:55;;;;;;;161.33;154.67;;;15.10;97.10;;;;;;4359881;32;20159;-62
2022/03/16 13:32:32;;;;;;;147.70;141.37;;;15.30;97.20;;;;;;4359767;32;20161;-62
2022/03/16 13:35:15;;;;;;;171.00;163.87;;;15.50;96.90;;;;;;4359508;33;20179;-61
2022/03/16 13:37:58;;;;;;;154.97;148.47;;;15.50;96.60;;;;;;4361009;32;20520;-62
2022/03/16 13:40:30;;;;;;;156.67;150.07;;;15.40;96.70;;;;;;4359690;33;20212;-61
2022/03/16 13:43:10;;;;;;;161.33;154.43;;;15.20;96.70;;;;;;4359732;33;20173;-61
2022/03/16 13:45:53;;;;;;;170.80;163.77;;;15.20;97.10;;;;;;4346949;33;20177;-63
2022/03/16 13:48:34;;;;;;;181.80;174.40;;;15.20;97.00;;;;;;4359534;32;20160;-60